This is the latest recevied weather packets stored in our database for station/object KC0AFB. If no packets are shown the sender has not sent any weather packets the latest 10 day(s).
| Time | Temp. | Humidity | Pressure | Rain* | Wind** | Luminosity | Snow |
|---|---|---|---|---|---|---|---|
| 1777922227 | 8.89° C | 49% | 1008.4 hPa | 0 mm | - | 244 W/m² | - |
| 1777921923 | 9.44° C | 48% | 1008.2 hPa | 0 mm | - | 890 W/m² | - |
| 1777921618 | 8.33° C | 51% | 1008.3 hPa | 0 mm | - | 356 W/m² | - |
| 1777921315 | 8.89° C | 49% | 1008.3 hPa | 0 mm | - | 327 W/m² | - |
| 1777921011 | 8.89° C | 47% | 1008.2 hPa | 0 mm | - | 313 W/m² | - |
| 1777920707 | 9.44° C | 49% | 1008.2 hPa | 0 mm | - | 432 W/m² | - |
| 1777920404 | 8.89° C | 47% | 1008.3 hPa | 0 mm | - | 447 W/m² | - |
| 1777920093 | 8.89° C | 46% | 1008.3 hPa | 0 mm | - | 348 W/m² | - |
| 1777919791 | 9.44° C | 46% | 1008.5 hPa | 0 mm | - | 705 W/m² | - |
| 1777919488 | 9.44° C | 45% | 1008.2 hPa | 0 mm | - | 440 W/m² | - |
| 1777919186 | 8.89° C | 45% | 1008 hPa | 0 mm | - | 393 W/m² | - |
| 1777918883 | 8.33° C | 47% | 1008.1 hPa | 0 mm | - | 304 W/m² | - |
| 1777918580 | 8.89° C | 46% | 1008 hPa | 0 mm | - | 345 W/m² | - |
| 1777918278 | 8.33° C | 46% | 1008.2 hPa | 0 mm | - | 376 W/m² | - |
| 1777917977 | 8.89° C | 45% | 1008 hPa | 0 mm | - | 327 W/m² | - |
| 1777917675 | 8.89° C | 46% | 1008.1 hPa | 0 mm | - | 926 W/m² | - |
| 1777917372 | 8.33° C | 47% | 1008.2 hPa | 0 mm | - | 382 W/m² | - |
| 1777917069 | 7.78° C | 48% | 1008.1 hPa | 0 mm | - | 278 W/m² | - |
| 1777916767 | 7.78° C | 48% | 1008.1 hPa | 0 mm | - | 285 W/m² | - |
| 1777916463 | 7.78° C | 48% | 1008.1 hPa | 0 mm | - | 326 W/m² | - |
| 1777916160 | 8.33° C | 47% | 1008.1 hPa | 0 mm | - | 272 W/m² | - |
| 1777915858 | 8.33° C | 48% | 1008.3 hPa | 0 mm | - | 339 W/m² | - |
| 1777915554 | 7.78° C | 49% | 1008.3 hPa | 0 mm | - | 372 W/m² | - |
| 1777915250 | 7.78° C | 48% | 1008 hPa | 0 mm | - | 309 W/m² | - |
| 1777914947 | 8.33° C | 48% | 1007.9 hPa | 0 mm | - | 279 W/m² | - |
* Rain latest hour (hover to see other rain measurements)
** Current wind speed in m/s (hover to see current wind gust speed)